createdAt,value
2023-03-16T00:00:38.135Z,34.62
2023-03-16T00:03:22.143Z,34.57
2023-03-16T00:05:53.477Z,35.20
2023-03-16T00:08:23.292Z,35.54
2023-03-16T00:10:54.263Z,35.13
2023-03-16T00:13:25.550Z,35.33
2023-03-16T00:15:57.260Z,35.71
2023-03-16T00:18:29.998Z,35.68
2023-03-16T00:21:02.253Z,35.86
2023-03-16T00:23:36.270Z,35.30
2023-03-16T00:26:07.495Z,35.86
2023-03-16T00:28:37.628Z,35.45
2023-03-16T00:31:08.926Z,34.88
2023-03-16T00:33:39.957Z,35.11
2023-03-16T00:36:11.493Z,35.07
2023-03-16T00:38:45.252Z,35.42
2023-03-16T00:41:16.307Z,34.88
2023-03-16T00:43:46.519Z,34.39
2023-03-16T00:46:18.736Z,34.40
2023-03-16T00:48:49.791Z,34.32
2023-03-16T00:51:20.796Z,34.35
2023-03-16T00:53:50.885Z,34.56
2023-03-16T00:56:20.447Z,35.28
2023-03-16T00:58:50.866Z,35.59
2023-03-16T01:01:21.160Z,34.89
2023-03-16T01:03:52.589Z,35.39
2023-03-16T01:06:22.254Z,35.20
2023-03-16T01:08:52.489Z,35.55
2023-03-16T01:11:24.122Z,35.71
2023-03-16T01:13:55.354Z,36.40
2023-03-16T01:16:24.876Z,36.17
2023-03-16T01:18:57.733Z,36.13
2023-03-16T01:21:27.364Z,35.86
2023-03-16T01:23:57.282Z,35.89
2023-03-16T01:26:26.838Z,36.33
2023-03-16T01:28:56.400Z,36.04
2023-03-16T01:31:26.004Z,35.98
2023-03-16T01:33:57.060Z,35.50
2023-03-16T01:36:29.973Z,35.98
2023-03-16T01:39:04.200Z,36.08
2023-03-16T01:41:38.504Z,35.71
2023-03-16T01:44:09.022Z,35.68
2023-03-16T01:46:38.570Z,35.46
2023-03-16T01:49:13.742Z,35.50
2023-03-16T01:51:47.848Z,35.67
2023-03-16T01:54:24.828Z,35.77
2023-03-16T01:57:01.602Z,36.44
2023-03-16T01:59:36.999Z,36.50
2023-03-16T02:02:07.689Z,37.49
2023-03-16T02:04:53.418Z,36.18
2023-03-16T02:07:27.088Z,36.83
2023-03-16T02:09:59.524Z,36.88
2023-03-16T02:12:29.665Z,36.70
2023-03-16T02:15:01.075Z,37.04
2023-03-16T02:17:33.336Z,37.75
2023-03-16T02:20:23.129Z,37.22
2023-03-16T02:22:56.629Z,37.24
2023-03-16T02:25:32.798Z,36.88
2023-03-16T02:28:07.017Z,36.23
2023-03-16T02:30:43.012Z,36.90
2023-03-16T02:33:13.416Z,36.24
2023-03-16T02:35:43.162Z,37.05
2023-03-16T02:38:13.174Z,37.28
2023-03-16T02:40:59.390Z,36.57
2023-03-16T02:43:34.382Z,37.13
2023-03-16T02:46:28.710Z,36.58
2023-03-16T02:49:04.348Z,36.38
2023-03-16T02:51:34.027Z,36.74
2023-03-16T02:54:03.414Z,36.70
2023-03-16T02:56:36.123Z,36.59
2023-03-16T02:59:05.697Z,37.32
2023-03-16T03:01:36.896Z,36.37
2023-03-16T03:04:07.360Z,36.16
2023-03-16T03:06:37.119Z,36.24
2023-03-16T03:09:06.932Z,37.13
2023-03-16T03:11:36.675Z,36.31
2023-03-16T03:14:06.613Z,36.46
2023-03-16T03:16:38.505Z,36.49
2023-03-16T03:19:07.842Z,36.51
2023-03-16T03:21:40.621Z,37.00
2023-03-16T03:24:11.045Z,36.08
2023-03-16T03:26:40.745Z,35.80
2023-03-16T03:29:16.821Z,37.11
2023-03-16T03:36:11.394Z,35.60
2023-03-16T03:38:42.546Z,35.54
2023-03-16T03:41:12.982Z,34.50
2023-03-16T03:43:42.663Z,35.31
2023-03-16T03:46:17.579Z,35.27
2023-03-16T03:48:47.017Z,35.31
2023-03-16T03:51:18.281Z,35.10
2023-03-16T03:53:54.731Z,34.96
2023-03-16T03:56:40.753Z,34.62
2023-03-16T03:59:14.991Z,35.05
2023-03-16T04:02:03.330Z,35.15
2023-03-16T04:04:43.400Z,35.85
2023-03-16T04:07:16.240Z,35.12
2023-03-16T04:09:47.126Z,35.06
2023-03-16T04:12:26.856Z,34.29
2023-03-16T04:14:56.751Z,33.72
2023-03-16T04:17:27.674Z,33.88
2023-03-16T04:20:00.460Z,33.84
2023-03-16T04:22:31.422Z,34.79
2023-03-16T04:25:03.022Z,35.27
2023-03-16T04:27:36.865Z,35.54
2023-03-16T04:30:11.399Z,34.67
2023-03-16T04:32:44.611Z,34.83
2023-03-16T04:35:18.181Z,35.20
2023-03-16T04:37:53.861Z,35.31
2023-03-16T04:40:28.293Z,34.71
2023-03-16T04:43:06.136Z,34.22
2023-03-16T04:45:36.994Z,34.67
2023-03-16T04:48:07.330Z,35.56
2023-03-16T04:50:37.136Z,35.17
2023-03-16T04:53:08.967Z,35.73
2023-03-16T04:55:38.900Z,35.58
2023-03-16T04:58:09.517Z,35.45
2023-03-16T05:00:41.648Z,35.61
2023-03-16T05:03:24.802Z,36.02
2023-03-16T05:05:54.251Z,35.05
2023-03-16T05:08:26.014Z,35.35
2023-03-16T05:10:59.109Z,35.35
2023-03-16T05:13:32.478Z,35.65
2023-03-16T05:16:02.949Z,36.79
2023-03-16T05:18:36.515Z,35.44
2023-03-16T05:21:06.093Z,35.53
2023-03-16T05:23:49.750Z,35.63
2023-03-16T05:26:19.437Z,35.38
2023-03-16T05:28:49.710Z,35.08
2023-03-16T05:31:20.836Z,34.93
2023-03-16T05:33:54.560Z,35.53
2023-03-16T05:36:24.927Z,36.28
2023-03-16T05:38:59.789Z,35.48
2023-03-16T05:41:34.881Z,35.33
2023-03-16T05:44:19.594Z,35.00
2023-03-16T05:47:01.435Z,36.06
2023-03-16T05:49:33.445Z,35.36
2023-03-16T05:52:06.096Z,35.50
2023-03-16T05:54:39.825Z,35.25
2023-03-16T05:57:12.119Z,38.04
2023-03-16T05:59:44.127Z,37.01
2023-03-16T06:02:14.488Z,35.74
2023-03-16T06:04:44.325Z,35.77
2023-03-16T06:07:13.700Z,35.76
2023-03-16T06:09:44.825Z,37.30
2023-03-16T06:12:17.736Z,38.06
2023-03-16T06:14:47.607Z,36.91
2023-03-16T06:17:17.750Z,36.04
2023-03-16T06:19:47.460Z,36.40
2023-03-16T06:22:16.722Z,36.70
2023-03-16T06:24:47.824Z,39.35
2023-03-16T06:27:18.678Z,37.90
2023-03-16T06:30:01.969Z,37.28
2023-03-16T06:32:32.159Z,36.79
2023-03-16T06:35:03.600Z,37.59
2023-03-16T06:37:34.338Z,37.82
2023-03-16T06:40:14.737Z,36.45
2023-03-16T06:42:46.320Z,37.82
2023-03-16T06:45:22.189Z,37.89
2023-03-16T06:47:52.647Z,38.25
2023-03-16T06:50:22.361Z,36.82
2023-03-16T06:52:52.006Z,37.50
2023-03-16T06:55:23.247Z,36.67
2023-03-16T06:57:52.602Z,36.42
2023-03-16T07:00:22.970Z,37.88
2023-03-16T07:02:53.171Z,38.44
2023-03-16T07:05:41.973Z,39.57
2023-03-16T07:08:12.191Z,41.16
2023-03-16T07:10:43.339Z,41.31
2023-03-16T07:13:14.967Z,41.43
2023-03-16T07:15:46.720Z,39.90
2023-03-16T07:18:16.603Z,40.73
2023-03-16T07:20:46.920Z,39.65
2023-03-16T07:28:13.276Z,36.92
2023-03-16T07:31:02.165Z,35.71
2023-03-16T07:33:37.268Z,34.46
2023-03-16T07:36:10.962Z,33.79
2023-03-16T07:38:47.556Z,34.18
2023-03-16T07:41:17.237Z,33.99
2023-03-16T07:43:49.501Z,33.37
2023-03-16T07:46:19.181Z,32.52
2023-03-16T07:48:50.417Z,34.05
2023-03-16T07:51:20.240Z,33.74
2023-03-16T07:53:52.501Z,34.23
2023-03-16T07:56:31.656Z,32.96
2023-03-16T07:59:14.842Z,32.58
2023-03-16T08:01:44.732Z,33.06
2023-03-16T08:04:14.608Z,34.88
2023-03-16T08:06:44.376Z,33.68
2023-03-16T08:09:15.620Z,33.61
2023-03-16T08:11:46.773Z,33.34
2023-03-16T08:14:17.935Z,35.13
2023-03-16T08:17:05.666Z,37.39
2023-03-16T08:19:36.110Z,37.43
2023-03-16T08:22:09.255Z,38.67
2023-03-16T08:24:43.297Z,38.84
2023-03-16T08:27:16.245Z,38.90
2023-03-16T08:29:54.171Z,38.09
2023-03-16T08:32:26.963Z,37.38
2023-03-16T08:34:58.988Z,38.05
2023-03-16T08:37:28.683Z,36.42
2023-03-16T08:40:00.499Z,35.87
2023-03-16T08:42:32.589Z,37.64
2023-03-16T08:45:12.223Z,35.62
2023-03-16T08:47:44.533Z,34.63
2023-03-16T08:50:16.658Z,35.73
2023-03-16T08:52:45.950Z,34.13
2023-03-16T08:55:16.293Z,34.57
2023-03-16T08:57:46.553Z,34.76
2023-03-16T09:00:18.521Z,34.02
2023-03-16T09:02:48.075Z,33.91
2023-03-16T09:05:18.465Z,32.15
2023-03-16T09:07:48.982Z,35.51
2023-03-16T09:10:19.058Z,33.77
2023-03-16T09:12:48.481Z,32.59
2023-03-16T09:15:21.036Z,32.67
2023-03-16T09:17:50.593Z,33.29
2023-03-16T09:20:26.502Z,34.10
2023-03-16T09:22:57.803Z,34.29
2023-03-16T09:25:28.178Z,34.08
2023-03-16T09:27:58.126Z,32.75
2023-03-16T09:30:29.792Z,32.20
2023-03-16T09:32:59.694Z,33.92
2023-03-16T09:35:34.391Z,32.29
2023-03-16T09:38:06.959Z,30.88
2023-03-16T09:40:41.520Z,31.70
2023-03-16T09:43:26.224Z,31.79
2023-03-16T09:46:13.134Z,31.55
2023-03-16T09:48:43.344Z,30.19
2023-03-16T09:51:21.782Z,29.89
2023-03-16T09:53:54.444Z,30.59
2023-03-16T09:56:32.115Z,30.30
2023-03-16T09:59:03.365Z,29.13
2023-03-16T10:01:48.336Z,29.29
2023-03-16T10:04:30.532Z,30.26
2023-03-16T10:07:14.029Z,30.57
2023-03-16T10:09:51.060Z,29.82
2023-03-16T10:12:23.304Z,29.40
2023-03-16T10:14:59.138Z,28.60
2023-03-16T10:17:37.497Z,27.37
2023-03-16T10:20:09.554Z,26.97
2023-03-16T10:22:43.350Z,27.37
2023-03-16T10:25:21.275Z,27.45
2023-03-16T10:27:53.116Z,27.09
2023-03-16T10:30:28.440Z,28.56
2023-03-16T10:33:05.535Z,30.05
2023-03-16T10:35:45.611Z,28.99
2023-03-16T10:38:38.746Z,30.02
2023-03-16T10:41:22.695Z,28.45
2023-03-16T10:43:55.584Z,28.43
2023-03-16T10:46:27.680Z,29.68
2023-03-16T10:49:01.384Z,29.95
2023-03-16T10:51:34.921Z,30.28
2023-03-16T10:54:14.359Z,30.25
2023-03-16T10:56:44.280Z,29.57
2023-03-16T10:59:28.424Z,29.63
2023-03-16T11:01:59.732Z,28.66
2023-03-16T11:04:34.602Z,28.71
2023-03-16T11:07:04.311Z,28.21
2023-03-16T11:09:37.332Z,29.23
2023-03-16T11:12:16.422Z,28.11
2023-03-16T11:14:47.058Z,26.80
2023-03-16T11:17:20.342Z,26.41
2023-03-16T11:19:55.845Z,26.01
2023-03-16T11:22:27.055Z,26.17
2023-03-16T11:25:04.382Z,27.16
2023-03-16T11:27:40.565Z,26.80
2023-03-16T11:30:20.346Z,26.47
2023-03-16T11:32:53.592Z,27.68
2023-03-16T11:35:31.584Z,24.51
2023-03-16T11:38:12.493Z,23.65
2023-03-16T11:40:50.973Z,20.07
2023-03-16T11:43:50.146Z,21.94
2023-03-16T11:46:24.682Z,22.77
2023-03-16T11:49:14.637Z,24.54
2023-03-16T11:51:50.098Z,24.81
2023-03-16T11:54:41.597Z,23.93
2023-03-16T11:57:29.354Z,23.97
2023-03-16T12:00:13.006Z,21.39
2023-03-16T12:03:02.190Z,22.60
2023-03-16T12:05:49.481Z,24.78
2023-03-16T12:08:50.127Z,25.41
2023-03-16T12:12:30.807Z,100.00
2023-03-16T12:16:11.091Z,100.00
2023-03-16T12:19:47.173Z,100.00
2023-03-16T12:23:23.564Z,100.00
2023-03-16T12:26:54.589Z,100.00
2023-03-16T12:30:39.757Z,100.00
2023-03-16T12:34:11.887Z,100.00
2023-03-16T12:37:55.286Z,100.00
2023-03-16T12:41:36.400Z,100.00
2023-03-16T12:45:16.635Z,100.00
2023-03-16T12:48:50.437Z,100.00
2023-03-16T12:52:19.477Z,100.00
2023-03-16T12:55:51.948Z,100.00
2023-03-16T12:59:25.804Z,100.00
2023-03-16T13:02:59.883Z,100.00
2023-03-16T13:06:36.314Z,100.00
2023-03-16T13:10:08.955Z,100.00
2023-03-16T13:13:50.931Z,100.00
2023-03-16T13:17:28.998Z,100.00
2023-03-16T13:21:14.551Z,100.00
2023-03-16T13:25:14.114Z,100.00
2023-03-16T13:28:47.182Z,100.00
2023-03-16T13:32:27.728Z,100.00
2023-03-16T13:36:00.321Z,100.00
2023-03-16T13:39:30.301Z,100.00
2023-03-16T13:43:03.264Z,100.00
2023-03-16T13:46:34.578Z,100.00
2023-03-16T13:50:02.776Z,100.00
2023-03-16T13:53:32.966Z,100.00
2023-03-16T13:57:04.299Z,100.00
2023-03-16T14:00:34.691Z,100.00
2023-03-16T14:04:13.918Z,100.00
2023-03-16T14:07:41.854Z,100.00
2023-03-16T14:11:11.700Z,100.00
2023-03-16T14:14:41.370Z,100.00
2023-03-16T14:18:16.604Z,100.00
2023-03-16T14:21:45.670Z,100.00
2023-03-16T14:25:23.711Z,100.00
2023-03-16T14:28:59.836Z,100.00
2023-03-16T14:32:35.381Z,100.00
2023-03-16T14:36:17.644Z,100.00
2023-03-16T14:39:47.023Z,100.00
2023-03-16T14:43:16.270Z,100.00
2023-03-16T14:46:44.298Z,100.00
2023-03-16T14:50:26.408Z,100.00
2023-03-16T14:53:56.219Z,100.00
2023-03-16T14:57:24.574Z,100.00
2023-03-16T15:00:53.916Z,100.00
2023-03-16T15:04:26.000Z,100.00
2023-03-16T15:07:56.488Z,100.00
2023-03-16T15:11:26.331Z,100.00
2023-03-16T15:15:12.121Z,100.00
2023-03-16T15:18:40.332Z,100.00
2023-03-16T15:22:13.665Z,100.00
2023-03-16T15:25:42.189Z,100.00
2023-03-16T15:29:12.961Z,100.00
2023-03-16T15:32:41.269Z,100.00
2023-03-16T15:36:14.920Z,100.00
2023-03-16T15:39:46.375Z,100.00
2023-03-16T15:43:16.843Z,100.00
2023-03-16T15:46:45.128Z,100.00
2023-03-16T15:50:14.089Z,100.00
2023-03-16T15:53:45.754Z,100.00
2023-03-16T15:57:14.956Z,100.00
2023-03-16T16:00:43.314Z,100.00
2023-03-16T16:04:14.572Z,100.00
2023-03-16T16:07:42.385Z,100.00
2023-03-16T16:11:16.766Z,100.00
2023-03-16T16:14:44.763Z,100.00
2023-03-16T16:18:25.434Z,100.00
2023-03-16T16:21:55.341Z,100.00
2023-03-16T16:25:25.997Z,100.00
2023-03-16T16:28:54.321Z,100.00
2023-03-16T16:32:24.807Z,100.00
2023-03-16T16:35:53.138Z,100.00
2023-03-16T16:39:22.006Z,100.00
2023-03-16T16:42:53.048Z,100.00
2023-03-16T16:46:24.111Z,100.00
2023-03-16T16:49:53.725Z,100.00
2023-03-16T16:53:21.908Z,100.00
2023-03-16T16:56:53.251Z,100.00
2023-03-16T17:00:23.828Z,100.00
2023-03-16T17:03:52.293Z,100.00
2023-03-16T17:07:21.160Z,100.00
2023-03-16T17:10:49.507Z,100.00
2023-03-16T17:14:27.647Z,100.00
2023-03-16T17:18:03.169Z,100.00
2023-03-16T17:21:32.118Z,100.00
2023-03-16T17:25:00.552Z,100.00
2023-03-16T17:28:32.958Z,100.00
2023-03-16T17:32:01.960Z,100.00
2023-03-16T17:35:33.078Z,100.00
2023-03-16T17:39:03.239Z,100.00
2023-03-16T17:42:31.167Z,100.00
2023-03-16T17:46:01.958Z,100.00
2023-03-16T17:49:30.833Z,100.00
2023-03-16T17:52:59.724Z,100.00
2023-03-16T17:56:30.085Z,100.00
2023-03-16T17:59:58.705Z,100.00
2023-03-16T18:03:39.596Z,100.00
2023-03-16T18:07:12.581Z,100.00
2023-03-16T18:10:40.963Z,100.00
2023-03-16T18:14:22.037Z,100.00
2023-03-16T18:17:52.972Z,100.00
2023-03-16T18:21:23.721Z,100.00
2023-03-16T18:24:53.191Z,100.00
2023-03-16T18:28:24.897Z,100.00
2023-03-16T18:31:55.307Z,100.00
2023-03-16T18:35:25.392Z,100.00
2023-03-16T18:38:53.888Z,100.00
2023-03-16T18:42:24.232Z,100.00
2023-03-16T18:45:54.804Z,100.00
2023-03-16T18:49:31.145Z,100.00
2023-03-16T18:52:59.549Z,100.00
2023-03-16T18:56:28.685Z,100.00
2023-03-16T18:59:57.865Z,100.00
2023-03-16T19:03:30.725Z,100.00
2023-03-16T19:07:01.489Z,100.00
2023-03-16T19:10:32.174Z,100.00
2023-03-16T19:14:00.251Z,100.00
2023-03-16T19:17:28.442Z,100.00
2023-03-16T19:20:56.992Z,100.00
2023-03-16T19:24:29.259Z,100.00
2023-03-16T19:27:58.257Z,100.00
2023-03-16T19:31:29.852Z,100.00
2023-03-16T19:34:58.591Z,100.00
2023-03-16T19:38:28.499Z,100.00
2023-03-16T19:41:59.025Z,100.00
2023-03-16T19:45:31.360Z,100.00
2023-03-16T19:48:59.655Z,100.00
2023-03-16T19:52:31.379Z,100.00
2023-03-16T19:56:00.612Z,100.00
2023-03-16T19:59:33.890Z,100.00
2023-03-16T20:03:03.090Z,100.00
2023-03-16T20:06:33.460Z,100.00
2023-03-16T20:10:03.489Z,100.00
2023-03-16T20:13:32.574Z,100.00
2023-03-16T20:17:01.164Z,100.00
2023-03-16T20:20:30.166Z,100.00
2023-03-16T20:23:58.534Z,100.00
2023-03-16T20:27:30.750Z,100.00
2023-03-16T20:31:00.106Z,100.00
2023-03-16T20:34:29.736Z,100.00
2023-03-16T20:37:58.007Z,100.00
2023-03-16T20:41:28.359Z,100.00
2023-03-16T20:44:59.236Z,100.00
2023-03-16T20:48:28.005Z,100.00
2023-03-16T20:51:58.225Z,100.00
2023-03-16T20:55:29.338Z,100.00
2023-03-16T20:58:59.098Z,100.00
2023-03-16T21:02:28.528Z,100.00
2023-03-16T21:05:59.623Z,100.00
2023-03-16T21:09:31.134Z,100.00
2023-03-16T21:12:59.782Z,100.00
2023-03-16T21:16:30.658Z,100.00
2023-03-16T21:19:59.476Z,100.00
2023-03-16T21:23:28.510Z,100.00
2023-03-16T21:26:58.260Z,100.00
2023-03-16T21:30:28.800Z,100.00
2023-03-16T21:33:59.907Z,100.00
2023-03-16T21:37:30.407Z,100.00
2023-03-16T21:40:58.714Z,100.00
2023-03-16T21:44:27.493Z,100.00
2023-03-16T21:47:56.327Z,100.00
2023-03-16T21:51:31.366Z,100.00
2023-03-16T21:54:59.951Z,100.00
2023-03-16T21:58:28.125Z,100.00
2023-03-16T22:02:01.843Z,100.00
2023-03-16T22:05:33.717Z,100.00
2023-03-16T22:09:04.249Z,100.00
2023-03-16T22:12:32.627Z,100.00
2023-03-16T22:16:02.419Z,100.00
2023-03-16T22:19:32.532Z,100.00
2023-03-16T22:23:02.993Z,100.00
2023-03-16T22:26:30.997Z,100.00
2023-03-16T22:29:59.874Z,100.00
2023-03-16T22:33:29.885Z,100.00
2023-03-16T22:36:59.721Z,100.00
2023-03-16T22:40:32.340Z,100.00
2023-03-16T22:44:02.914Z,100.00
2023-03-16T22:47:32.606Z,100.00
2023-03-16T22:51:02.522Z,100.00
2023-03-16T22:54:36.386Z,100.00
2023-03-16T22:58:07.963Z,100.00
2023-03-16T23:01:37.015Z,100.00
2023-03-16T23:05:19.289Z,100.00
2023-03-16T23:08:48.158Z,100.00
2023-03-16T23:12:22.137Z,100.00
2023-03-16T23:15:51.617Z,100.00
2023-03-16T23:19:25.125Z,100.00
2023-03-16T23:22:54.469Z,100.00
2023-03-16T23:26:25.425Z,100.00
2023-03-16T23:29:55.513Z,100.00
2023-03-16T23:33:23.631Z,100.00
2023-03-16T23:36:52.039Z,100.00
2023-03-16T23:40:20.866Z,100.00
2023-03-16T23:43:51.986Z,100.00
2023-03-16T23:47:20.821Z,100.00
2023-03-16T23:50:49.522Z,100.00
2023-03-16T23:54:20.209Z,100.00
2023-03-16T23:57:48.314Z,100.00
